createdAt,value
2018-12-27T00:00:27.643Z,0.9
2018-12-27T00:01:17.385Z,0.9
2018-12-27T00:02:07.767Z,0.9
2018-12-27T00:02:57.802Z,0.9
2018-12-27T00:03:47.872Z,0.9
2018-12-27T00:04:37.652Z,0.9
2018-12-27T00:05:27.692Z,0.9
2018-12-27T00:06:17.761Z,0.9
2018-12-27T00:07:07.554Z,0.9
2018-12-27T00:07:57.592Z,0.9
2018-12-27T00:08:48.202Z,0.9
2018-12-27T00:09:37.716Z,0.9
2018-12-27T00:10:28.317Z,0.9
2018-12-27T00:11:17.812Z,0.9
2018-12-27T00:12:08.436Z,0.9
2018-12-27T00:12:58.484Z,0.9
2018-12-27T00:13:48.539Z,0.9
2018-12-27T00:14:38.597Z,0.9
2018-12-27T00:32:52.080Z,0.9
2018-12-27T00:33:42.202Z,0.9
2018-12-27T00:34:32.501Z,0.9
2018-12-27T00:35:22.253Z,0.9
2018-12-27T00:36:12.610Z,0.9
2018-12-27T00:37:02.660Z,0.9
2018-12-27T00:37:52.748Z,0.9
2018-12-27T00:38:43.028Z,0.9
2018-12-27T00:39:32.840Z,0.9
2018-12-27T00:40:22.900Z,1
2018-12-27T00:41:12.667Z,0.9
2018-12-27T00:42:02.737Z,1
2018-12-27T00:42:53.065Z,1
2018-12-27T00:43:43.368Z,1
2018-12-27T00:44:33.159Z,0.9
2018-12-27T00:45:23.228Z,1
2018-12-27T00:46:12.815Z,1
2018-12-27T00:47:03.067Z,1
2018-12-27T00:47:52.864Z,1
2018-12-27T00:48:43.471Z,1
2018-12-27T00:49:33.517Z,1
2018-12-27T00:50:23.292Z,1
2018-12-27T00:51:13.350Z,1
2018-12-27T00:52:03.681Z,1
2018-12-27T00:52:53.194Z,1
2018-12-27T00:53:43.799Z,1
2018-12-27T00:54:33.299Z,1
2018-12-27T00:55:23.921Z,1
2018-12-27T00:56:13.686Z,1
2018-12-27T00:57:03.745Z,1
2018-12-27T00:57:54.161Z,1
2018-12-27T00:58:44.391Z,1
2018-12-27T00:59:34.202Z,1
2018-12-27T01:00:24.041Z,1
2018-12-27T01:01:14.039Z,1
2018-12-27T01:02:04.373Z,1
2018-12-27T01:02:54.161Z,1
2018-12-27T01:03:44.476Z,1
2018-12-27T01:04:34.551Z,1
2018-12-27T01:05:24.324Z,1
2018-12-27T01:06:14.489Z,1.1
2018-12-27T01:07:04.726Z,1
2018-12-27T01:07:54.506Z,1
2018-12-27T01:08:45.133Z,1
2018-12-27T01:09:34.883Z,1
2018-12-27T01:10:24.942Z,1
2018-12-27T01:11:14.721Z,1
2018-12-27T01:12:05.096Z,1
2018-12-27T01:12:55.116Z,1
2018-12-27T01:13:45.173Z,1
2018-12-27T01:14:35.236Z,1
2018-12-27T01:15:25.255Z,1
2018-12-27T01:16:15.405Z,1
2018-12-27T01:17:04.862Z,1
2018-12-27T01:17:55.450Z,1.1
2018-12-27T01:18:45.252Z,1
2018-12-27T01:19:35.307Z,1
2018-12-27T01:20:25.638Z,1
2018-12-27T01:21:15.405Z,1
2018-12-27T01:22:05.752Z,1
2018-12-27T01:22:55.530Z,1
2018-12-27T01:23:45.862Z,1
2018-12-27T01:24:35.372Z,1
2018-12-27T01:25:25.945Z,1
2018-12-27T01:26:16.112Z,1
2018-12-27T01:27:06.089Z,1
2018-12-27T01:27:56.147Z,1
2018-12-27T01:28:46.200Z,1
2018-12-27T01:29:36.340Z,1
2018-12-27T01:30:26.039Z,1
2018-12-27T01:31:16.626Z,1
2018-12-27T01:32:05.886Z,1
2018-12-27T01:32:56.492Z,1
2018-12-27T01:33:46.554Z,1
2018-12-27T01:34:36.574Z,1
2018-12-27T01:35:26.400Z,1.1
2018-12-27T01:36:16.803Z,1
2018-12-27T01:37:06.777Z,1
2018-12-27T01:37:55.999Z,1
2018-12-27T01:38:46.891Z,1
2018-12-27T01:39:36.461Z,1
2018-12-27T01:40:26.724Z,1.1
2018-12-27T01:41:16.524Z,1
2018-12-27T01:42:07.119Z,1
2018-12-27T01:42:57.179Z,1
2018-12-27T01:43:46.956Z,1
2018-12-27T01:44:37.286Z,1
2018-12-27T01:45:27.354Z,1
2018-12-27T01:46:17.408Z,1
2018-12-27T01:47:07.183Z,1
2018-12-27T01:47:57.256Z,1
2018-12-27T01:48:47.293Z,1
2018-12-27T01:49:37.633Z,1
2018-12-27T01:50:27.750Z,1
2018-12-27T01:51:17.744Z,1
2018-12-27T01:52:07.518Z,1
2018-12-27T01:52:57.590Z,1
2018-12-27T01:53:47.906Z,1
2018-12-27T01:54:37.698Z,1
2018-12-27T01:55:27.764Z,1
2018-12-27T01:56:17.803Z,1
2018-12-27T01:57:07.637Z,1
2018-12-27T01:57:57.926Z,1
2018-12-27T01:58:47.996Z,1
2018-12-27T01:59:38.315Z,1
2018-12-27T02:00:28.096Z,1
2018-12-27T02:01:18.423Z,0.9
2018-12-27T02:02:08.733Z,1
2018-12-27T02:02:58.543Z,1
2018-12-27T02:03:48.593Z,1
2018-12-27T02:04:38.645Z,1
2018-12-27T02:05:28.711Z,1
2018-12-27T02:06:18.488Z,1
2018-12-27T02:07:08.824Z,1
2018-12-27T02:07:58.889Z,1
2018-12-27T02:08:48.647Z,1
2018-12-27T02:09:38.996Z,1
2018-12-27T02:10:28.774Z,1
2018-12-27T02:11:19.107Z,1
2018-12-27T02:12:09.511Z,1
2018-12-27T02:12:59.224Z,1
2018-12-27T02:13:49.274Z,1
2018-12-27T02:14:39.339Z,1
2018-12-27T02:15:29.401Z,1
2018-12-27T02:16:19.454Z,1
2018-12-27T02:17:09.520Z,1
2018-12-27T02:17:59.656Z,1
2018-12-27T02:18:49.632Z,1
2018-12-27T02:19:39.381Z,1
2018-12-27T02:20:29.742Z,1
2018-12-27T02:21:19.792Z,1
2018-12-27T02:22:09.303Z,1
2018-12-27T02:22:59.916Z,1
2018-12-27T02:23:49.683Z,1
2018-12-27T02:24:40.030Z,1
2018-12-27T02:25:29.807Z,1
2018-12-27T02:26:20.126Z,1
2018-12-27T02:27:10.196Z,0.9
2018-12-27T02:27:59.973Z,0.9
2018-12-27T02:28:49.773Z,1
2018-12-27T02:29:40.612Z,0.9
2018-12-27T02:30:30.425Z,0.9
2018-12-27T02:31:20.588Z,1
2018-12-27T02:32:10.547Z,0.9
2018-12-27T02:33:00.600Z,1
2018-12-27T02:33:50.640Z,1
2018-12-27T02:34:40.708Z,1
2018-12-27T02:35:30.760Z,1
2018-12-27T02:36:20.550Z,0.9
2018-12-27T02:37:10.625Z,1
2018-12-27T02:38:00.685Z,1
2018-12-27T02:38:51.007Z,1
2018-12-27T02:39:41.733Z,1
2018-12-27T02:40:31.120Z,1
2018-12-27T02:41:21.180Z,1
2018-12-27T02:42:11.227Z,1
2018-12-27T02:43:01.280Z,0.9
2018-12-27T02:43:51.337Z,1
2018-12-27T02:44:40.857Z,1
2018-12-27T02:45:31.177Z,1
2018-12-27T02:46:21.245Z,1
2018-12-27T02:47:11.313Z,1
2018-12-27T02:48:01.353Z,1
2018-12-27T02:48:51.410Z,1
2018-12-27T02:49:41.733Z,1
2018-12-27T02:50:31.844Z,0.9
2018-12-27T02:51:21.865Z,1
2018-12-27T02:52:11.662Z,1
2018-12-27T02:53:01.684Z,0.9
2018-12-27T02:53:51.769Z,1
2018-12-27T02:54:42.082Z,1
2018-12-27T02:55:32.134Z,1
2018-12-27T02:56:22.191Z,0.9
2018-12-27T02:57:11.983Z,1
2018-12-27T02:58:02.042Z,0.9
2018-12-27T02:58:52.094Z,1
2018-12-27T02:59:42.504Z,0.9
2018-12-27T03:00:32.476Z,1
2018-12-27T03:01:21.511Z,0.9
2018-12-27T03:02:12.309Z,0.9
2018-12-27T03:03:02.659Z,0.9
2018-12-27T03:03:52.987Z,0.9
2018-12-27T03:04:42.789Z,0.9
2018-12-27T03:05:32.786Z,0.9
2018-12-27T03:06:22.892Z,0.9
2018-12-27T03:07:12.946Z,0.9
2018-12-27T03:08:02.991Z,0.9
2018-12-27T03:08:52.779Z,0.9
2018-12-27T03:09:43.140Z,0.9
2018-12-27T03:10:32.886Z,0.9
2018-12-27T03:11:22.962Z,0.9
2018-12-27T03:12:13.299Z,0.9
2018-12-27T03:13:03.067Z,0.9
2018-12-27T03:13:53.125Z,0.9
2018-12-27T03:14:42.994Z,0.9
2018-12-27T03:15:33.280Z,0.9
2018-12-27T03:16:23.566Z,0.9
2018-12-27T03:17:13.507Z,0.9
2018-12-27T03:18:02.940Z,0.9
2018-12-27T03:18:53.258Z,0.9
2018-12-27T03:19:43.321Z,0.9
2018-12-27T03:20:33.380Z,0.9
2018-12-27T03:21:23.183Z,0.9
2018-12-27T03:22:13.205Z,0.9
2018-12-27T03:23:03.750Z,0.9
2018-12-27T03:23:53.837Z,0.9
2018-12-27T03:24:43.648Z,0.9
2018-12-27T03:25:33.446Z,0.9
2018-12-27T03:26:23.768Z,0.9
2018-12-27T03:27:13.572Z,0.9
2018-12-27T03:28:03.898Z,0.9
2018-12-27T03:28:53.480Z,0.9
2018-12-27T03:29:43.998Z,0.9
2018-12-27T03:30:33.830Z,0.9
2018-12-27T03:31:24.144Z,0.9
2018-12-27T03:32:14.181Z,0.9
2018-12-27T03:33:04.273Z,0.9
2018-12-27T03:33:54.534Z,0.9
2018-12-27T03:34:44.352Z,0.9
2018-12-27T03:35:34.129Z,0.9
2018-12-27T03:36:24.457Z,0.9
2018-12-27T03:37:14.626Z,0.9
2018-12-27T03:38:04.570Z,0.9
2018-12-27T03:38:54.625Z,0.9
2018-12-27T03:39:44.686Z,0.9
2018-12-27T03:40:34.743Z,0.9
2018-12-27T03:41:24.792Z,0.9
2018-12-27T03:42:14.568Z,0.9
2018-12-27T03:43:04.924Z,0.9
2018-12-27T03:43:54.702Z,0.9
2018-12-27T03:44:45.035Z,0.9
2018-12-27T03:45:35.080Z,0.9
2018-12-27T03:46:24.862Z,0.9
2018-12-27T03:47:14.919Z,0.9
2018-12-27T03:48:04.975Z,0.9
2018-12-27T03:48:55.306Z,0.9
2018-12-27T03:49:45.846Z,0.8
2018-12-27T03:50:35.359Z,0.9
2018-12-27T03:51:25.489Z,0.8
2018-12-27T03:52:15.539Z,0.9
2018-12-27T03:53:05.596Z,0.9
2018-12-27T03:53:56.137Z,0.9
2018-12-27T03:54:45.718Z,0.8
2018-12-27T03:55:35.490Z,0.8
2018-12-27T03:56:25.286Z,0.8
2018-12-27T03:57:15.871Z,0.9
2018-12-27T03:58:06.136Z,0.8
2018-12-27T03:58:55.719Z,0.8
2018-12-27T03:59:46.057Z,0.8
2018-12-27T04:00:36.606Z,0.8
2018-12-27T04:01:26.179Z,0.8
2018-12-27T04:02:16.770Z,0.8
2018-12-27T04:03:06.753Z,0.8
2018-12-27T04:04:02.748Z,0.8
2018-12-27T04:04:46.391Z,0.8
2018-12-27T04:05:36.959Z,0.8
2018-12-27T04:06:26.244Z,0.8
2018-12-27T04:07:16.763Z,0.8
2018-12-27T04:08:06.850Z,0.8
2018-12-27T04:08:56.405Z,0.8
2018-12-27T04:09:46.469Z,0.8
2018-12-27T04:10:36.788Z,0.8
2018-12-27T04:11:27.080Z,0.8
2018-12-27T04:12:17.404Z,0.8
2018-12-27T04:13:07.435Z,0.8
2018-12-27T04:13:57.223Z,0.8
2018-12-27T04:14:47.291Z,0.8
2018-12-27T04:15:37.618Z,0.8
2018-12-27T04:16:27.395Z,0.8
2018-12-27T04:17:17.882Z,0.8
2018-12-27T04:18:07.813Z,0.8
2018-12-27T04:18:57.848Z,0.8
2018-12-27T04:19:47.915Z,0.8
2018-12-27T04:20:37.692Z,0.8
2018-12-27T04:21:27.745Z,0.8
2018-12-27T04:22:17.807Z,0.8
2018-12-27T04:23:07.847Z,0.8
2018-12-27T04:23:57.902Z,0.8
2018-12-27T04:24:48.243Z,0.8
2018-12-27T04:25:37.755Z,0.8
2018-12-27T04:26:28.077Z,0.8
2018-12-27T04:27:18.405Z,0.8
2018-12-27T04:28:08.210Z,0.8
2018-12-27T04:28:58.529Z,0.8
2018-12-27T04:29:48.330Z,0.8
2018-12-27T04:30:38.420Z,0.8
2018-12-27T04:31:28.706Z,0.8
2018-12-27T04:32:18.225Z,0.8
2018-12-27T04:33:08.804Z,0.8
2018-12-27T04:33:58.862Z,0.8
2018-12-27T04:34:48.672Z,0.8
2018-12-27T04:35:38.999Z,0.8
2018-12-27T04:36:28.780Z,0.8
2018-12-27T04:37:19.099Z,0.8
2018-12-27T04:38:08.901Z,0.8
2018-12-27T04:38:59.211Z,0.8
2018-12-27T04:39:48.982Z,0.8
2018-12-27T04:40:39.631Z,0.8
2018-12-27T04:41:29.115Z,0.8
2018-12-27T04:42:19.462Z,0.8
2018-12-27T04:43:09.521Z,0.8
2018-12-27T04:43:59.596Z,0.8
2018-12-27T04:44:49.622Z,0.8
2018-12-27T05:02:08.160Z,0.7
2018-12-27T05:02:58.617Z,0.8
2018-12-27T05:03:48.161Z,0.8
2018-12-27T05:04:38.480Z,0.7
2018-12-27T05:05:28.257Z,0.8
2018-12-27T05:06:18.317Z,0.8
2018-12-27T05:07:08.639Z,0.8
2018-12-27T05:08:00.378Z,0.8
2018-12-27T05:08:48.474Z,0.8
2018-12-27T05:09:38.524Z,0.8
2018-12-27T05:10:28.587Z,0.7
2018-12-27T05:11:19.011Z,0.7
2018-12-27T05:12:08.706Z,0.7
2018-12-27T05:12:59.029Z,0.7
2018-12-27T05:13:48.804Z,0.7
2018-12-27T05:14:39.152Z,0.7
2018-12-27T05:15:29.205Z,0.7
2018-12-27T05:16:18.709Z,0.7
2018-12-27T05:17:09.331Z,0.7
2018-12-27T05:17:59.374Z,0.7
2018-12-27T05:18:49.527Z,0.7
2018-12-27T05:19:39.493Z,0.7
2018-12-27T05:20:29.268Z,0.7
2018-12-27T05:21:19.352Z,0.7
2018-12-27T05:22:09.104Z,0.7
2018-12-27T05:23:00.016Z,0.7
2018-12-27T05:23:49.509Z,0.7
2018-12-27T05:24:39.841Z,0.7
2018-12-27T05:25:29.911Z,0.7
2018-12-27T05:26:19.940Z,0.7
2018-12-27T05:27:09.731Z,0.7
2018-12-27T05:28:00.058Z,0.7
2018-12-27T05:28:50.177Z,0.7
2018-12-27T05:29:39.890Z,0.7
2018-12-27T05:30:29.760Z,0.7
2018-12-27T05:31:19.997Z,0.7
2018-12-27T05:32:10.332Z,0.6
2018-12-27T05:33:00.462Z,0.7
2018-12-27T05:33:50.460Z,0.6
2018-12-27T05:34:40.506Z,0.6
2018-12-27T05:35:30.283Z,0.6
2018-12-27T05:36:20.647Z,0.6
2018-12-27T05:37:10.764Z,0.6
2018-12-27T05:38:00.465Z,0.6
2018-12-27T05:38:50.525Z,0.6
2018-12-27T05:39:40.847Z,0.6
2018-12-27T05:40:30.630Z,0.6
2018-12-27T05:41:20.967Z,0.6
2018-12-27T05:42:11.014Z,0.6
2018-12-27T05:43:01.082Z,0.6
2018-12-27T05:43:51.132Z,0.6
2018-12-27T05:44:41.182Z,0.6
2018-12-27T05:45:30.970Z,0.6
2018-12-27T05:46:20.744Z,0.6
2018-12-27T05:47:11.354Z,0.6
2018-12-27T05:48:01.413Z,0.6
2018-12-27T05:48:51.482Z,0.6
2018-12-27T05:49:41.526Z,0.6
2018-12-27T05:50:31.582Z,0.6
2018-12-27T05:51:21.632Z,0.6
2018-12-27T05:52:11.431Z,0.6
2018-12-27T05:53:01.489Z,0.6
2018-12-27T05:53:51.804Z,0.6
2018-12-27T05:54:41.583Z,0.6
2018-12-27T05:55:35.534Z,0.6
2018-12-27T05:56:21.699Z,0.6
2018-12-27T05:57:12.051Z,0.6
2018-12-27T05:58:02.088Z,0.6
2018-12-27T05:58:51.878Z,0.6
2018-12-27T05:59:42.241Z,0.6
2018-12-27T06:00:32.003Z,0.6
2018-12-27T06:01:22.333Z,0.6
2018-12-27T06:02:12.093Z,0.6
2018-12-27T06:03:02.431Z,0.6
2018-12-27T06:03:52.492Z,0.6
2018-12-27T06:04:42.558Z,0.6
2018-12-27T06:05:32.315Z,0.6
2018-12-27T06:06:22.658Z,0.5
2018-12-27T06:07:12.715Z,0.6
2018-12-27T06:08:02.235Z,0.6
2018-12-27T06:08:52.553Z,0.5
2018-12-27T06:09:42.623Z,0.6
2018-12-27T06:10:32.943Z,0.5
2018-12-27T06:11:23.000Z,0.6
2018-12-27T06:12:13.063Z,0.6
2018-12-27T06:13:02.567Z,0.6
2018-12-27T06:13:52.890Z,0.6
2018-12-27T06:14:42.658Z,0.5
2018-12-27T06:15:33.280Z,0.6
2018-12-27T06:16:23.138Z,0.5
2018-12-27T06:17:13.113Z,0.6
2018-12-27T06:18:03.176Z,0.5
2018-12-27T06:18:53.478Z,0.6
2018-12-27T06:19:43.610Z,0.5
2018-12-27T06:20:33.619Z,0.5
2018-12-27T06:21:23.392Z,0.5
2018-12-27T06:22:13.514Z,0.5
2018-12-27T06:23:03.795Z,0.5
2018-12-27T06:23:54.114Z,0.5
2018-12-27T06:24:43.354Z,0.5
2018-12-27T06:25:33.985Z,0.5
2018-12-27T06:26:24.019Z,0.5
2018-12-27T06:27:13.800Z,0.5
2018-12-27T06:28:04.120Z,0.5
2018-12-27T06:28:54.434Z,0.5
2018-12-27T06:29:44.263Z,0.5
2018-12-27T06:30:34.299Z,0.5
2018-12-27T06:31:24.074Z,0.5
2018-12-27T06:32:14.469Z,0.5
2018-12-27T06:33:04.474Z,0.5
2018-12-27T06:33:54.277Z,0.5
2018-12-27T06:34:44.307Z,0.5
2018-12-27T06:35:34.636Z,0.5
2018-12-27T06:36:24.427Z,0.5
2018-12-27T06:37:14.779Z,0.5
2018-12-27T06:38:04.537Z,0.5
2018-12-27T06:38:54.597Z,0.5
2018-12-27T06:39:44.641Z,0.5
2018-12-27T06:40:34.701Z,0.5
2018-12-27T06:41:25.036Z,0.5
2018-12-27T06:42:14.892Z,0.5
2018-12-27T06:43:05.146Z,0.5
2018-12-27T06:43:55.212Z,0.5
2018-12-27T06:44:45.259Z,0.5
2018-12-27T06:45:35.319Z,0.5
2018-12-27T06:46:25.368Z,0.5
2018-12-27T06:47:15.427Z,0.5
2018-12-27T06:48:05.209Z,0.5
2018-12-27T06:48:55.538Z,0.5
2018-12-27T06:49:45.058Z,0.5
2018-12-27T06:50:35.656Z,0.6
2018-12-27T06:51:25.716Z,0.5
2018-12-27T06:52:15.493Z,0.6
2018-12-27T06:53:05.295Z,0.5
2018-12-27T06:53:55.605Z,0.6
2018-12-27T06:54:45.929Z,0.6
2018-12-27T06:55:35.968Z,0.6
2018-12-27T06:56:26.048Z,0.6
2018-12-27T06:57:16.108Z,0.6
2018-12-27T06:58:05.616Z,0.6
2018-12-27T06:58:55.951Z,0.6
2018-12-27T06:59:46.278Z,0.6
2018-12-27T07:00:36.838Z,0.6
2018-12-27T07:01:26.382Z,0.6
2018-12-27T07:02:15.878Z,0.6
2018-12-27T07:03:06.513Z,0.6
2018-12-27T07:03:56.548Z,0.6
2018-12-27T07:04:50.455Z,0.6
2018-12-27T07:05:36.640Z,0.6
2018-12-27T07:06:26.470Z,0.6
2018-12-27T07:07:16.783Z,0.6
2018-12-27T07:08:06.850Z,0.6
2018-12-27T07:08:56.623Z,0.6
2018-12-27T07:09:46.956Z,0.6
2018-12-27T07:10:37.008Z,0.7
2018-12-27T07:11:27.117Z,0.7
2018-12-27T07:12:16.581Z,0.7
2018-12-27T07:13:06.900Z,0.7
2018-12-27T07:13:56.690Z,0.7
2018-12-27T07:14:46.751Z,0.8
2018-12-27T07:15:37.400Z,0.8
2018-12-27T07:16:27.420Z,0.8
2018-12-27T07:17:17.198Z,0.8
2018-12-27T07:18:06.973Z,0.8
2018-12-27T07:18:59.311Z,0.8
2018-12-27T07:19:47.353Z,0.8
2018-12-27T07:20:37.410Z,0.8
2018-12-27T07:21:27.470Z,0.9
2018-12-27T07:22:17.525Z,0.9
2018-12-27T07:23:07.895Z,0.9
2018-12-27T07:23:57.913Z,0.9
2018-12-27T07:24:47.693Z,0.9
2018-12-27T07:25:38.035Z,0.9
2018-12-27T07:26:27.797Z,1
2018-12-27T07:27:17.582Z,1
2018-12-27T07:28:08.222Z,1.1
2018-12-27T07:28:58.288Z,1.1
2018-12-27T07:29:47.762Z,1.1
2018-12-27T07:30:38.358Z,1.1
2018-12-27T07:31:28.248Z,1.1
2018-12-27T07:32:18.202Z,1.1
2018-12-27T07:33:08.254Z,1.2
2018-12-27T07:33:58.301Z,1.3
2018-12-27T07:34:48.359Z,1.3
2018-12-27T07:35:38.150Z,1.3
2018-12-27T07:36:28.207Z,1.3
2018-12-27T07:37:18.815Z,1.4
2018-12-27T07:38:08.859Z,1.4
2018-12-27T07:38:58.932Z,1.4
2018-12-27T07:39:48.980Z,1.6
2018-12-27T07:40:39.371Z,1.6
2018-12-27T07:41:29.095Z,1.6
2018-12-27T07:42:19.147Z,1.7
2018-12-27T07:43:08.927Z,1.7
2018-12-27T07:43:59.332Z,1.8
2018-12-27T07:44:49.324Z,1.8
2018-12-27T07:45:38.826Z,1.8
2018-12-27T07:46:28.916Z,1.9
2018-12-27T07:47:19.497Z,1.9
2018-12-27T07:48:09.550Z,1.9
2018-12-27T07:48:59.602Z,1.9
2018-12-27T07:49:49.651Z,1.9
2018-12-27T07:50:39.716Z,2
2018-12-27T07:51:29.774Z,2
2018-12-27T07:52:19.831Z,2.1
2018-12-27T07:53:09.874Z,2.1
2018-12-27T07:53:59.944Z,2.1
2018-12-27T07:54:49.989Z,2.1
2018-12-27T07:55:39.778Z,2.1
2018-12-27T07:56:30.105Z,2.2
2018-12-27T07:57:20.206Z,2.2
2018-12-27T07:58:10.208Z,2.3
2018-12-27T07:59:00.286Z,2.3
2018-12-27T07:59:50.040Z,2.3
2018-12-27T08:00:40.110Z,2.3
2018-12-27T08:02:19.680Z,2.4
2018-12-27T08:03:10.270Z,2.5
2018-12-27T08:04:00.337Z,2.6
2018-12-27T08:04:50.696Z,2.6
2018-12-27T08:05:40.173Z,2.6
2018-12-27T08:06:30.490Z,2.7
2018-12-27T08:07:20.902Z,2.7
2018-12-27T08:08:10.885Z,2.8
2018-12-27T08:09:00.660Z,2.8
2018-12-27T08:09:50.770Z,2.9
2018-12-27T08:10:40.772Z,2.9
2018-12-27T08:11:30.838Z,3
2018-12-27T08:12:21.170Z,3.1
2018-12-27T08:13:10.948Z,3.1
2018-12-27T08:14:01.295Z,3.1
2018-12-27T08:14:51.354Z,3.2
2018-12-27T08:15:41.402Z,3.3
2018-12-27T08:16:31.444Z,3.3
2018-12-27T08:17:21.504Z,3.4
2018-12-27T08:18:11.284Z,3.4
2018-12-27T08:19:01.624Z,3.4
2018-12-27T08:19:51.722Z,3.5
2018-12-27T08:20:41.186Z,3.6
2018-12-27T08:21:31.509Z,3.6
2018-12-27T08:22:21.842Z,3.7
2018-12-27T08:23:11.634Z,3.8
2018-12-27T08:24:02.014Z,3.8
2018-12-27T08:24:52.012Z,3.9
2018-12-27T08:25:42.064Z,3.9
2018-12-27T08:26:32.115Z,4
2018-12-27T08:27:21.964Z,4.1
2018-12-27T08:28:12.254Z,4.1
2018-12-27T08:29:02.036Z,4.2
2018-12-27T08:29:52.349Z,4.3
2018-12-27T08:30:42.401Z,4.3
2018-12-27T08:31:32.462Z,4.4
2018-12-27T08:32:22.513Z,4.4
2018-12-27T08:33:12.303Z,4.5
2018-12-27T08:34:02.400Z,4.6
2018-12-27T08:34:52.406Z,4.6
2018-12-27T08:35:42.468Z,4.7
2018-12-27T08:36:32.806Z,4.7
2018-12-27T08:37:22.848Z,4.8
2018-12-27T08:38:12.928Z,4.9
2018-12-27T08:39:02.966Z,4.9
2018-12-27T08:39:52.751Z,4.9
2018-12-27T08:40:43.073Z,5
2018-12-27T08:41:32.863Z,5.1
2018-12-27T08:42:23.195Z,5.1
2018-12-27T08:43:13.000Z,5.1
2018-12-27T08:44:03.015Z,5.1
2018-12-27T08:44:53.078Z,5.2
2018-12-27T08:45:43.420Z,5.3
2018-12-27T08:46:33.203Z,5.3
2018-12-27T08:47:23.531Z,5.3
2018-12-27T08:48:13.038Z,5.4
2018-12-27T08:49:03.642Z,5.4
2018-12-27T08:49:53.687Z,5.4
2018-12-27T08:50:43.467Z,5.4
2018-12-27T08:51:33.797Z,5.4
2018-12-27T08:52:23.097Z,5.5
2018-12-27T08:53:13.957Z,5.5
2018-12-27T08:54:03.967Z,5.6
2018-12-27T08:54:54.018Z,5.6
2018-12-27T08:55:43.857Z,5.6
2018-12-27T08:56:34.127Z,5.6
2018-12-27T08:57:24.204Z,5.6
2018-12-27T08:58:14.247Z,5.7
2018-12-27T08:59:04.297Z,5.8
2018-12-27T08:59:53.809Z,5.8
2018-12-27T09:00:44.389Z,5.8
2018-12-27T09:16:32.026Z,6.3
2018-12-27T09:17:21.240Z,6.4
2018-12-27T09:18:11.675Z,6.4
2018-12-27T09:19:01.898Z,6.4
2018-12-27T09:19:51.668Z,6.4
2018-12-27T09:20:42.058Z,6.4
2018-12-27T09:21:31.837Z,6.5
2018-12-27T09:22:21.633Z,6.5
2018-12-27T09:23:12.160Z,6.6
2018-12-27T09:24:02.225Z,6.6
2018-12-27T09:24:52.000Z,6.6
2018-12-27T09:25:42.337Z,6.6
2018-12-27T09:26:32.110Z,6.6
2018-12-27T09:27:22.465Z,6.6
2018-12-27T09:28:12.507Z,6.7
2018-12-27T09:29:02.577Z,6.7
2018-12-27T09:29:52.615Z,6.8
2018-12-27T09:30:42.194Z,6.8
2018-12-27T09:31:32.734Z,6.8
2018-12-27T09:32:22.795Z,6.8
2018-12-27T09:33:12.562Z,6.8
2018-12-27T09:34:02.629Z,6.8
2018-12-27T09:34:52.479Z,6.9
2018-12-27T09:35:42.264Z,6.9
2018-12-27T09:36:33.078Z,6.9
2018-12-27T09:37:22.867Z,7
2018-12-27T09:38:12.356Z,7
2018-12-27T09:39:03.244Z,7
2018-12-27T09:39:52.814Z,7.1
2018-12-27T09:40:42.586Z,7.1
2018-12-27T09:41:33.176Z,7.1
2018-12-27T09:42:22.978Z,7.2
2018-12-27T09:43:12.764Z,7.2
2018-12-27T09:44:03.298Z,7.3
2018-12-27T09:44:53.631Z,7.3
2018-12-27T09:45:43.200Z,7.3
2018-12-27T09:46:33.261Z,7.4
2018-12-27T09:47:23.801Z,7.4
2018-12-27T09:48:13.116Z,7.4
2018-12-27T09:49:03.161Z,7.4
2018-12-27T09:49:53.488Z,7.5
2018-12-27T09:50:43.550Z,7.5
2018-12-27T09:51:34.088Z,7.5
2018-12-27T09:52:23.666Z,7.6
2018-12-27T09:53:13.985Z,7.6
2018-12-27T09:54:03.780Z,7.6
2018-12-27T09:54:53.575Z,7.6
2018-12-27T09:55:43.888Z,7.6
2018-12-27T09:56:33.948Z,7.6
2018-12-27T09:57:24.204Z,7.7
2018-12-27T09:58:14.063Z,7.7
2018-12-27T09:59:03.855Z,7.7
2018-12-27T09:59:54.170Z,7.7
2018-12-27T10:00:44.245Z,7.8
2018-12-27T10:01:34.285Z,7.8
2018-12-27T10:02:24.547Z,7.8
2018-12-27T10:03:14.130Z,7.8
2018-12-27T10:04:04.180Z,7.8
2018-12-27T10:04:54.517Z,7.8
2018-12-27T10:05:44.572Z,7.8
2018-12-27T10:06:34.350Z,7.8
2018-12-27T10:07:24.412Z,7.8
2018-12-27T10:08:14.467Z,7.8
2018-12-27T10:09:04.252Z,7.8
2018-12-27T10:09:54.842Z,7.8
2018-12-27T10:10:45.397Z,7.8
2018-12-27T10:11:35.019Z,7.8
2018-12-27T10:12:25.489Z,7.8
2018-12-27T10:13:15.557Z,7.8
2018-12-27T10:14:05.622Z,7.8
2018-12-27T10:14:55.187Z,7.8
2018-12-27T10:15:45.228Z,7.8
2018-12-27T10:16:35.784Z,7.8
2018-12-27T10:17:25.842Z,7.7
2018-12-27T10:18:15.894Z,7.7
2018-12-27T10:19:05.966Z,7.7
2018-12-27T10:19:55.735Z,7.7
2018-12-27T10:20:46.084Z,7.7
2018-12-27T10:21:36.127Z,7.7
2018-12-27T10:22:25.699Z,7.6
2018-12-27T10:23:16.500Z,7.6
2018-12-27T10:24:05.561Z,7.6
2018-12-27T10:24:56.344Z,7.6
2018-12-27T10:25:46.398Z,7.6
2018-12-27T10:26:36.181Z,7.6
2018-12-27T10:27:26.521Z,7.6
2018-12-27T10:28:16.359Z,7.6
2018-12-27T10:29:06.634Z,7.6
2018-12-27T10:29:56.149Z,7.6
2018-12-27T10:30:46.464Z,7.5
2018-12-27T10:31:36.529Z,7.6
2018-12-27T10:32:26.856Z,7.5
2018-12-27T10:33:16.411Z,7.6
2018-12-27T10:34:06.691Z,7.5
2018-12-27T10:34:57.029Z,7.5
2018-12-27T10:35:47.093Z,7.5
2018-12-27T10:36:37.123Z,7.5
2018-12-27T10:37:27.196Z,7.5
2018-12-27T10:38:17.510Z,7.5
2018-12-27T10:39:07.036Z,7.5
2018-12-27T10:39:57.083Z,7.5
2018-12-27T10:40:47.148Z,7.5
2018-12-27T10:41:37.475Z,7.5
2018-12-27T10:42:27.523Z,7.5
2018-12-27T10:43:17.570Z,7.5
2018-12-27T10:44:07.643Z,7.5
2018-12-27T10:44:57.696Z,7.5
2018-12-27T10:45:47.750Z,7.5
2018-12-27T10:46:37.542Z,7.5
2018-12-27T10:47:27.950Z,7.5
2018-12-27T10:48:17.928Z,7.5
2018-12-27T10:49:07.987Z,7.5
2018-12-27T10:49:57.760Z,7.5
2018-12-27T10:50:47.550Z,7.5
2018-12-27T10:51:38.165Z,7.6
2018-12-27T10:52:28.588Z,7.6
2018-12-27T10:53:18.267Z,7.6
2018-12-27T10:54:08.561Z,7.6
2018-12-27T10:54:58.351Z,7.6
2018-12-27T10:55:48.440Z,7.6
2018-12-27T10:56:38.487Z,7.6
2018-12-27T10:57:28.259Z,7.6
2018-12-27T10:58:18.324Z,7.6
2018-12-27T10:59:08.759Z,7.6
2018-12-27T10:59:58.724Z,7.6
2018-12-27T11:00:48.764Z,7.6
2018-12-27T11:01:38.819Z,7.6
2018-12-27T11:02:28.927Z,7.6
2018-12-27T11:03:18.654Z,7.6
2018-12-27T11:04:08.736Z,7.6
2018-12-27T11:04:59.049Z,7.6
2018-12-27T11:05:50.116Z,7.6
2018-12-27T11:06:39.161Z,7.6
2018-12-27T11:07:29.218Z,7.6
2018-12-27T11:08:18.711Z,7.7
2018-12-27T11:09:09.344Z,7.7
2018-12-27T11:09:59.391Z,7.7
2018-12-27T11:10:49.171Z,7.7
2018-12-27T11:11:39.497Z,7.7
2018-12-27T11:12:29.546Z,7.7
2018-12-27T11:13:19.613Z,7.7
2018-12-27T11:14:09.713Z,7.7
2018-12-27T11:14:59.727Z,7.7
2018-12-27T11:15:49.775Z,7.6
2018-12-27T11:16:39.857Z,7.7
2018-12-27T11:17:29.613Z,7.7
2018-12-27T11:18:19.940Z,7.7
2018-12-27T11:19:09.772Z,7.7
2018-12-27T11:19:59.775Z,7.7
2018-12-27T11:20:50.139Z,7.7
2018-12-27T11:21:40.162Z,7.7
2018-12-27T11:22:30.227Z,7.7
2018-12-27T11:23:20.286Z,7.8
2018-12-27T11:24:10.348Z,7.8
2018-12-27T11:25:00.386Z,7.8
2018-12-27T11:25:50.472Z,7.8
2018-12-27T11:26:40.512Z,7.8
2018-12-27T11:27:30.569Z,7.8
2018-12-27T11:28:20.345Z,7.8
2018-12-27T11:29:10.684Z,7.8
2018-12-27T11:30:00.468Z,7.8
2018-12-27T11:30:50.521Z,7.9
2018-12-27T11:31:40.578Z,7.9
2018-12-27T11:32:30.629Z,7.9
2018-12-27T11:33:20.979Z,7.9
2018-12-27T11:34:10.754Z,7.9
2018-12-27T11:35:00.881Z,7.9
2018-12-27T11:35:57.108Z,7.9
2018-12-27T11:36:40.906Z,7.9
2018-12-27T11:37:31.234Z,7.9
2018-12-27T11:38:21.026Z,7.9
2018-12-27T11:39:10.796Z,7.9
2018-12-27T11:40:01.136Z,7.9
2018-12-27T11:40:51.426Z,7.9
2018-12-27T11:41:41.245Z,7.9
2018-12-27T11:42:31.563Z,7.9
2018-12-27T11:43:21.622Z,7.9
2018-12-27T11:44:11.410Z,7.9
2018-12-27T11:45:01.745Z,7.9
2018-12-27T11:45:52.047Z,7.9
2018-12-27T11:46:41.846Z,7.9
2018-12-27T11:47:31.920Z,7.9
2018-12-27T11:48:21.695Z,7.9
2018-12-27T11:49:12.038Z,7.9
2018-12-27T11:50:35.517Z,7.9
2018-12-27T11:51:25.033Z,7.9
2018-12-27T11:52:15.632Z,7.9
2018-12-27T11:53:05.410Z,7.8
2018-12-27T11:53:55.737Z,7.8
2018-12-27T11:54:45.591Z,7.8
2018-12-27T11:55:35.862Z,7.8
2018-12-27T11:56:25.639Z,7.8
2018-12-27T11:57:15.404Z,7.8
2018-12-27T11:58:06.030Z,7.8
2018-12-27T11:58:55.814Z,7.7
2018-12-27T11:59:45.857Z,7.7
2018-12-27T12:00:35.912Z,7.7
2018-12-27T12:01:26.267Z,7.6
2018-12-27T12:02:16.034Z,7.6
2018-12-27T12:03:05.827Z,7.6
2018-12-27T12:03:56.137Z,7.6
2018-12-27T12:04:46.474Z,7.6
2018-12-27T12:05:36.046Z,7.6
2018-12-27T12:06:26.314Z,7.6
2018-12-27T12:07:16.644Z,7.5
2018-12-27T12:08:06.429Z,7.5
2018-12-27T12:08:56.761Z,7.5
2018-12-27T12:09:46.601Z,7.5
2018-12-27T12:11:27.916Z,7.4
2018-12-27T12:12:17.975Z,7.4
2018-12-27T12:13:08.031Z,7.4
2018-12-27T12:13:57.806Z,7.4
2018-12-27T12:14:47.866Z,7.4
2018-12-27T12:15:38.208Z,7.4
2018-12-27T12:16:28.298Z,7.4
2018-12-27T12:17:17.767Z,7.4
2018-12-27T12:18:08.373Z,7.3
2018-12-27T12:18:57.883Z,7.3
2018-12-27T12:19:48.206Z,7.3
2018-12-27T12:20:38.538Z,7.3
2018-12-27T12:21:28.604Z,7.3
2018-12-27T12:22:18.648Z,7.3
2018-12-27T12:23:08.718Z,7.3
2018-12-27T12:23:58.757Z,7.3
2018-12-27T12:24:48.553Z,7.3
2018-12-27T12:25:38.877Z,7.3
2018-12-27T12:26:28.115Z,7.3
2018-12-27T12:27:18.491Z,7.3
2018-12-27T12:28:09.058Z,7.2
2018-12-27T12:28:59.168Z,7.2
2018-12-27T12:29:49.155Z,7.2